logo
Rechercher aéroport 
image banner adimage banner adimage banner ad
image banner ad

HKUV - Komawayu (Tanke)

Situé à , Kenya

ICAO - , IATA -

Données fournies par Airmate  

Information générale

Coordonnées: S2°54'60" E39°33'3"
Élévation : 412 feet MSL.
 
Voir autres Aéroports à Coast Province

Données opérationnelles

Special qualification required
Heure actuelle UTC:
Heure actuelle locale:
Météo à : HKML - Malindi ( 70 km )
METAR: HKML 290700Z 21015KT 9999 FEW022 29/21 Q1016
TAF: TAF HKML 290500Z 2906/3006 20010KT 9999 FEW023 BECMG 2909/2912 19020KT BECMG 3000/3004 18010KT
Voir NOTAMs / SUP AIP / TFR affectant cet aéroport [VIEW]
Fréquences de communication: [VIEW]

Pistes:

Identifiant RWYQFULongueur (ft)Largeur (ft)SurfaceLDA (ft)
1600UNK
3400UNK

Coordonnées de l'aéroport

Adresse: Kenya

Vue satellite de HKUV